Newport State Information

FAA: UUU - ICAO: KUUU

Newport State (Airport) Location

State Rhode Island
County Newport
City Newport
Newport State (Airport) is 2 miles northeast of Newport, RI.
Latitude 41-31-56.7831N
Longitude 071-16-53.5582W
Elevation 171ft

Newport State METARs

METAR KUUU 251753Z AUTO VRB04KT 9SM OVC012 19/18 A2994 RMK AO2 SLP137 60012 T01890178 10194 20139 58014
Altimeter 29.94"
Temperature 18.9°C (66.0°F)
Wind 0° at 4KT
Clouds overcast at 1,200ft
Visibility 9.0mi
Time observed: 2021-10-25T17:53:00Z

Newport State (Airport) Details

Status Operational
Activation January 1947
Ownership Public
Usage Public
Chart NEW YORK
ATC on-site No
Beacon schedule sunset-sunrise
Beacon color clear green

Newport State (Airport) Contacts

Owner STATE OF RHODE ISLAND
Owner address RHODE ISLAND AIRPORT CORPORATION, 2000 POST RD, WARWICK, RI 02886
Owner phone (401) 691-2000
Manager W. E. RITTS
Manager address 144 ROCKYTOP LANE, WORTHINGTON, PA 16262
Manager phone 724-297-3690

Newport State Radio Frequencies

Newport State (Airport) Radio Frequencies

UNICOM 123.05
Common traffic advisory frequency (CTAF) 123.05